Time;durP1;ratioP1;P1;durP2;ratioP2;P2;SDS_P1;SDS_P2;PMS_P1;PMS_P2;Temp;Humidity;BMP_temperature;BMP_pressure;BME280_temperature;BME280_humidity;BME280_pressure;Samples;Min_cycle;Max_cycle;Signal;HPM_P1;HPM_P2
2023/07/26 00:01:01;;;;;;;27.60;19.23;;;12.30;99.90;;;11.86;100.00;96829.09;5024307;28;20033;-36
2023/07/26 00:03:27;;;;;;;24.83;18.50;;;12.30;99.90;;;11.85;100.00;96830.91;5025619;28;20021;-36
2023/07/26 00:05:53;;;;;;;26.55;17.90;;;12.30;99.90;;;11.92;100.00;96834.13;5028820;28;20044;-37
2023/07/26 00:08:19;;;;;;;32.47;19.83;;;12.40;99.90;;;11.94;100.00;96840.19;5029175;28;20044;-38
2023/07/26 00:10:46;;;;;;;27.02;20.23;;;12.40;99.90;;;11.88;100.00;96821.97;5025840;28;20183;-37
2023/07/26 00:13:14;;;;;;;25.98;19.48;;;12.40;99.90;;;11.96;100.00;96834.81;5033108;28;20024;-37
2023/07/26 00:15:40;;;;;;;27.48;19.63;;;12.40;99.90;;;11.98;100.00;96839.09;5027120;28;20040;-37
2023/07/26 00:18:07;;;;;;;29.50;21.17;;;12.40;99.90;;;11.98;100.00;96846.16;5033513;28;20017;-37
2023/07/26 00:20:32;;;;;;;29.20;19.92;;;12.40;99.90;;;12.02;100.00;96838.00;5031785;28;20080;-37
2023/07/26 00:22:58;;;;;;;32.90;19.73;;;12.50;99.90;;;12.05;100.00;96847.56;5036110;28;20028;-36
2023/07/26 00:25:24;;;;;;;24.63;19.13;;;12.50;99.90;;;12.05;100.00;96846.72;5033151;28;20040;-37
2023/07/26 00:27:49;;;;;;;25.15;18.40;;;12.50;99.90;;;12.06;100.00;96853.69;5033434;28;20138;-37
2023/07/26 00:30:15;;;;;;;23.63;17.73;;;12.50;99.90;;;12.09;100.00;96848.25;5030629;28;20488;-36
2023/07/26 00:32:41;;;;;;;33.15;20.10;;;12.60;99.90;;;12.12;100.00;96845.47;5020929;28;20032;-38
2023/07/26 00:35:07;;;;;;;23.98;19.30;;;12.60;99.90;;;12.12;100.00;96854.22;5028624;28;20440;-37
2023/07/26 00:37:32;;;;;;;26.42;19.75;;;12.60;99.90;;;12.15;100.00;96859.38;5030168;28;20413;-37
2023/07/26 00:39:58;;;;;;;19.98;17.75;;;12.60;99.90;;;12.12;100.00;96851.59;5030070;28;20037;-37
2023/07/26 00:42:24;;;;;;;23.08;17.90;;;12.60;99.90;;;12.16;100.00;96861.06;5032018;28;20021;-37
2023/07/26 00:44:50;;;;;;;24.88;17.27;;;12.60;99.90;;;12.19;100.00;96860.06;5034161;28;20080;-37
2023/07/26 00:47:16;;;;;;;22.27;17.40;;;12.60;99.90;;;12.20;100.00;96867.03;5033218;28;20028;-37
2023/07/26 00:49:43;;;;;;;20.95;16.92;;;12.60;99.90;;;12.20;100.00;96859.13;5032266;28;20044;-37
2023/07/26 00:52:11;;;;;;;20.67;17.40;;;12.70;99.90;;;12.20;100.00;96867.03;5030901;28;20029;-37
2023/07/26 00:54:37;;;;;;;22.77;16.27;;;12.70;99.90;;;12.21;100.00;96866.13;5029487;28;20447;-37
2023/07/26 00:57:03;;;;;;;20.25;16.83;;;12.70;99.90;;;12.18;100.00;96868.91;5032188;28;20028;-37
2023/07/26 00:59:28;;;;;;;21.25;15.73;;;12.70;99.90;;;12.19;100.00;96866.19;5029489;28;20067;-37
2023/07/26 01:01:54;;;;;;;22.08;17.13;;;12.70;99.90;;;12.22;100.00;96873.97;5030138;28;20041;-37
2023/07/26 01:04:20;;;;;;;24.52;17.60;;;12.70;99.90;;;12.25;100.00;96875.59;5029583;28;20025;-37
2023/07/26 01:07:01;;;;;;;21.02;16.95;;;12.70;99.90;;;12.12;100.00;96850.75;5032672;28;20111;-37
2023/07/26 01:09:41;;;;;;;22.13;16.33;;;12.70;99.90;;;12.16;100.00;96884.84;5026902;28;20051;-37
2023/07/26 01:12:14;;;;;;;18.30;14.20;;;12.70;99.90;;;12.14;100.00;96883.25;5032715;28;20456;-37
2023/07/26 01:14:58;;;;;;;17.23;14.57;;;12.60;99.90;;;12.10;100.00;96885.19;5031846;28;20044;-37
2023/07/26 01:17:24;;;;;;;16.63;13.07;;;12.60;99.90;;;12.10;100.00;96885.19;5027139;28;20182;-37
2023/07/26 01:19:50;;;;;;;18.38;14.05;;;12.60;99.90;;;12.06;100.00;96886.28;5031665;28;20111;-38
2023/07/26 01:22:15;;;;;;;13.05;10.20;;;12.60;99.90;;;12.09;100.00;96894.03;5032945;28;20071;-37
2023/07/26 01:24:41;;;;;;;14.20;9.57;;;12.50;99.90;;;12.06;100.00;96888.94;5029796;28;20037;-37
2023/07/26 01:27:07;;;;;;;13.30;9.48;;;12.60;99.90;;;12.01;100.00;96888.28;5025991;28;20393;-37
2023/07/26 01:29:33;;;;;;;9.13;7.53;;;12.50;99.90;;;12.00;100.00;96881.28;5026792;28;20064;-37
2023/07/26 01:31:59;;;;;;;10.48;7.50;;;12.50;99.90;;;11.90;100.00;96882.66;5035418;28;20028;-37
2023/07/26 01:34:26;;;;;;;8.60;7.10;;;12.50;99.90;;;11.87;100.00;96886.31;5028632;28;20091;-37
2023/07/26 01:36:52;;;;;;;8.43;6.82;;;12.40;99.90;;;11.74;100.00;96859.66;5027300;28;20134;-37
2023/07/26 01:39:19;;;;;;;13.13;7.25;;;12.40;99.90;;;11.78;100.00;96870.94;5028045;28;20023;-37
2023/07/26 01:41:46;;;;;;;9.18;7.00;;;12.40;99.90;;;11.87;100.00;96885.47;5044806;28;20366;-37
2023/07/26 01:44:12;;;;;;;9.30;6.85;;;12.30;99.90;;;11.85;100.00;96889.03;5029733;28;20034;-37
2023/07/26 01:46:38;;;;;;;9.73;7.45;;;12.30;99.90;;;11.85;100.00;96893.47;5028814;28;20083;-37
2023/07/26 01:49:04;;;;;;;11.18;7.30;;;12.30;99.90;;;11.84;100.00;96889.09;5031703;28;20488;-37
2023/07/26 01:51:29;;;;;;;8.00;6.68;;;12.30;99.90;;;11.82;100.00;96890.97;5028580;28;20539;-37
2023/07/26 01:53:55;;;;;;;8.80;6.78;;;12.30;99.90;;;11.79;100.00;96899.03;5032737;28;20601;-37
2023/07/26 01:56:21;;;;;;;11.25;7.45;;;12.30;99.90;;;11.76;100.00;96889.50;5030758;28;20027;-37
2023/07/26 01:58:47;;;;;;;8.82;7.10;;;12.30;99.90;;;11.68;100.00;96877.59;5030500;28;20029;-37
2023/07/26 02:01:13;;;;;;;8.05;6.90;;;12.20;99.90;;;11.77;100.00;96901.78;5029051;28;20051;-37
2023/07/26 02:03:38;;;;;;;9.20;8.23;;;12.20;99.90;;;11.74;100.00;96894.00;5027256;28;20029;-38
2023/07/26 02:06:04;;;;;;;9.98;6.18;;;12.20;99.90;;;11.75;100.00;96894.84;5029851;28;20067;-37
2023/07/26 02:08:30;;;;;;;9.25;6.10;;;12.20;99.90;;;11.72;100.00;96909.06;5033596;28;20028;-37
2023/07/26 02:10:56;;;;;;;7.82;6.10;;;12.20;99.90;;;11.71;100.00;96895.94;5033314;28;20021;-37
2023/07/26 02:13:21;;;;;;;8.90;6.47;;;12.20;99.90;;;11.71;100.00;96896.78;5027818;28;20091;-37
2023/07/26 02:15:47;;;;;;;7.63;5.57;;;12.20;99.90;;;11.71;100.00;96906.50;5031921;28;20037;-37
2023/07/26 02:18:13;;;;;;;8.43;6.30;;;12.20;99.90;;;11.65;100.00;96903.22;5027431;28;20021;-37
2023/07/26 02:20:39;;;;;;;7.85;5.53;;;12.20;99.90;;;11.65;100.00;96908.50;5031701;28;20766;-37
2023/07/26 02:23:05;;;;;;;11.05;6.63;;;12.20;99.90;;;11.55;100.00;96890.56;5032044;28;23461;-37
2023/07/26 02:25:30;;;;;;;9.27;6.10;;;12.10;99.90;;;11.61;100.00;96914.88;5030733;28;20037;-37
2023/07/26 02:27:56;;;;;;;9.63;6.18;;;12.10;99.90;;;11.59;100.00;96910.59;5032865;28;20678;-37
2023/07/26 02:30:22;;;;;;;7.47;5.65;;;12.10;99.90;;;11.59;100.00;96911.47;5032347;28;20037;-37
2023/07/26 02:32:47;;;;;;;7.03;6.03;;;12.10;99.90;;;11.62;100.00;96908.66;5022652;28;20741;-37
2023/07/26 02:35:13;;;;;;;6.75;6.05;;;12.10;99.90;;;11.63;100.00;96909.53;5032536;28;20080;-38
2023/07/26 02:37:39;;;;;;;11.93;6.95;;;12.10;99.90;;;11.61;100.00;96906.97;5011302;28;20029;-37
2023/07/26 02:40:05;;;;;;;6.53;5.10;;;12.10;99.90;;;11.51;100.00;96894.28;5024933;28;20033;-37
2023/07/26 02:42:31;;;;;;;8.90;6.50;;;12.10;99.90;;;11.56;100.00;96916.88;5026708;28;20057;-37
2023/07/26 02:44:56;;;;;;;8.93;5.32;;;12.10;99.90;;;11.55;100.00;96920.44;5022662;28;20033;-37
2023/07/26 02:47:22;;;;;;;5.85;5.20;;;12.10;99.90;;;11.56;100.00;96921.31;5025898;28;20682;-37
2023/07/26 02:49:48;;;;;;;6.55;5.45;;;12.00;99.90;;;11.55;100.00;96925.72;5026943;28;20040;-38
2023/07/26 02:52:13;;;;;;;6.30;5.70;;;12.10;99.90;;;11.51;100.00;96926.81;5030806;28;20032;-38
2023/07/26 02:54:39;;;;;;;6.40;5.00;;;12.00;99.90;;;11.49;100.00;96922.56;5026209;28;20037;-37
2023/07/26 02:57:06;;;;;;;5.85;4.47;;;12.00;99.90;;;11.46;100.00;96926.19;5027484;28;20607;-37
2023/07/26 02:59:31;;;;;;;6.90;4.72;;;12.00;99.90;;;11.45;100.00;96937.69;5033296;28;20029;-37
2023/07/26 03:01:57;;;;;;;7.65;4.95;;;11.90;99.90;;;11.42;100.00;96933.38;5033420;28;20039;-37
2023/07/26 03:04:23;;;;;;;5.05;4.13;;;11.90;99.90;;;11.41;100.00;96936.97;5027562;28;20107;-37
2023/07/26 03:06:50;;;;;;;7.47;4.70;;;11.90;99.90;;;11.38;100.00;96944.19;5033997;28;20452;-37
2023/07/26 03:09:16;;;;;;;5.60;4.90;;;11.90;99.90;;;11.36;100.00;96938.09;5028287;28;20060;-37
2023/07/26 03:11:42;;;;;;;9.38;4.70;;;11.90;99.90;;;11.23;100.00;96928.16;5029260;28;20521;-37
2023/07/26 03:14:07;;;;;;;7.05;4.40;;;11.80;99.90;;;11.26;100.00;96935.06;5025291;28;20072;-37
2023/07/26 03:16:33;;;;;;;6.85;5.05;;;11.70;99.90;;;11.19;100.00;96939.75;5031929;28;20624;-37
2023/07/26 03:18:59;;;;;;;6.47;4.53;;;11.70;99.90;;;11.08;100.00;96934.97;5031780;28;20029;-37
2023/07/26 03:21:24;;;;;;;7.20;5.40;;;11.70;99.90;;;11.11;100.00;96941.03;5031737;28;20252;-37
2023/07/26 03:23:51;;;;;;;7.65;4.90;;;11.60;99.90;;;11.05;100.00;96947.44;5027763;28;20086;-37
2023/07/26 03:26:16;;;;;;;7.70;4.55;;;11.50;99.90;;;11.01;100.00;96953.81;5030399;28;20031;-37
2023/07/26 03:28:42;;;;;;;10.07;4.78;;;11.50;99.90;;;10.97;100.00;96952.25;5027508;28;20033;-37
2023/07/26 03:31:08;;;;;;;5.95;3.78;;;11.50;99.90;;;10.92;100.00;96952.44;5029547;28;20039;-37
2023/07/26 03:33:33;;;;;;;5.75;4.60;;;11.40;99.90;;;10.89;100.00;96956.09;5028446;28;20476;-37
2023/07/26 03:35:59;;;;;;;9.27;5.35;;;11.40;99.90;;;10.87;100.00;96963.22;5028315;28;20033;-37
2023/07/26 03:38:25;;;;;;;7.20;5.05;;;11.40;99.90;;;10.85;100.00;96958.91;5031452;28;20028;-37
2023/07/26 03:40:51;;;;;;;10.35;5.35;;;11.30;99.90;;;10.80;100.00;96956.50;5031953;28;20631;-37
2023/07/26 03:43:17;;;;;;;7.88;4.90;;;11.30;99.90;;;10.81;100.00;96963.47;5028450;28;20020;-37
2023/07/26 03:45:42;;;;;;;7.82;5.85;;;11.30;99.90;;;10.82;100.00;96962.56;5029432;28;20452;-37
2023/07/26 03:48:08;;;;;;;7.40;5.55;;;11.30;99.90;;;10.80;100.00;96960.91;5035603;28;20033;-37
2023/07/26 03:50:34;;;;;;;6.50;5.32;;;11.30;99.90;;;10.70;100.00;96953.41;5033257;28;20041;-37
2023/07/26 03:52:59;;;;;;;7.32;5.43;;;11.30;99.90;;;10.79;100.00;96962.69;5036944;28;20562;-37
2023/07/26 03:55:25;;;;;;;7.68;5.00;;;11.30;99.90;;;10.78;100.00;96966.25;5032117;28;20139;-37
2023/07/26 03:57:51;;;;;;;7.25;5.25;;;11.30;99.90;;;10.84;100.00;96968.63;5035225;28;20103;-37
2023/07/26 04:00:16;;;;;;;7.20;5.22;;;11.30;99.90;;;10.84;100.00;96971.25;5035092;28;20079;-37
2023/07/26 04:02:42;;;;;;;7.75;4.78;;;11.40;99.90;;;10.77;100.00;96956.63;5027388;28;20021;-37
2023/07/26 04:05:08;;;;;;;8.20;6.18;;;11.40;99.90;;;10.86;100.00;96976.47;5033553;28;20408;-37
2023/07/26 04:07:39;;;;;;;8.20;5.80;;;11.40;99.90;;;10.87;100.00;96980.81;5034641;28;20043;-37
2023/07/26 04:10:05;;;;;;;11.23;6.55;;;11.40;99.90;;;10.91;100.00;96974.50;5035802;28;20116;-37
2023/07/26 04:12:31;;;;;;;10.75;6.72;;;11.40;99.90;;;10.88;100.00;96979.91;5036333;28;20497;-37
2023/07/26 04:14:57;;;;;;;10.98;6.85;;;11.40;99.90;;;10.91;100.00;96981.53;5035119;28;20041;-37
2023/07/26 04:17:23;;;;;;;9.48;7.10;;;11.40;99.90;;;10.91;100.00;96973.59;5033519;28;20021;-37
2023/07/26 04:19:48;;;;;;;10.68;6.82;;;11.50;99.90;;;10.99;100.00;96988.19;5038017;28;20620;-37
2023/07/26 04:22:14;;;;;;;7.65;6.28;;;11.50;99.90;;;11.01;100.00;96991.59;5030788;28;20032;-37
2023/07/26 04:24:44;;;;;;;9.35;6.43;;;11.50;99.90;;;11.05;100.00;96992.31;5033780;28;20237;-37
2023/07/26 04:27:10;;;;;;;9.00;6.43;;;11.60;99.90;;;11.07;100.00;96979.91;5027049;28;20037;-37
2023/07/26 04:29:36;;;;;;;10.60;6.90;;;11.60;99.90;;;11.12;100.00;96983.19;5031091;28;20044;-37
2023/07/26 04:32:01;;;;;;;12.65;7.65;;;11.60;99.90;;;11.17;100.00;96986.47;5034242;28;20386;-37
2023/07/26 04:34:27;;;;;;;8.48;6.30;;;11.70;99.90;;;11.23;100.00;96986.22;5031128;28;20297;-37
2023/07/26 04:36:53;;;;;;;10.32;6.63;;;11.80;99.90;;;11.33;100.00;96989.28;5038802;28;20028;-37
2023/07/26 04:39:19;;;;;;;13.63;6.40;;;11.80;99.90;;;11.39;100.00;96993.41;5032903;28;20048;-37
2023/07/26 04:41:44;;;;;;;7.53;6.43;;;11.90;99.90;;;11.46;100.00;96993.03;5035846;28;20021;-37
2023/07/26 04:44:10;;;;;;;7.15;6.45;;;12.00;99.90;;;11.51;100.00;96984.91;5032436;28;20499;-37
2023/07/26 04:46:36;;;;;;;8.18;6.30;;;12.00;99.90;;;11.57;100.00;96994.31;5032940;28;20036;-37
2023/07/26 04:49:01;;;;;;;11.00;5.93;;;12.00;99.90;;;11.66;100.00;96999.16;5037569;28;20032;-37
2023/07/26 04:51:27;;;;;;;9.00;6.22;;;12.10;99.90;;;11.73;100.00;97000.59;5036829;28;20120;-37
2023/07/26 04:53:53;;;;;;;6.38;5.50;;;12.20;99.90;;;11.82;100.00;97001.94;5034772;28;20082;-37
2023/07/26 04:56:19;;;;;;;8.15;5.32;;;12.30;99.90;;;11.89;100.00;96999.84;5037575;28;20485;-37
2023/07/26 04:58:44;;;;;;;8.07;5.15;;;12.40;99.90;;;11.97;100.00;97009.16;5033072;28;20070;-37
2023/07/26 05:01:10;;;;;;;6.10;4.45;;;12.40;99.90;;;12.03;100.00;97011.50;5028093;28;20444;-37
2023/07/26 05:03:38;;;;;;;7.47;5.40;;;12.50;99.90;;;12.05;100.00;97006.13;5032571;28;20052;-40
2023/07/26 05:06:04;;;;;;;8.45;4.45;;;12.50;99.90;;;12.08;100.00;97016.56;5038569;28;20057;-38
2023/07/26 05:08:29;;;;;;;5.97;4.80;;;12.60;99.90;;;12.10;100.00;97019.13;5027930;28;20193;-37
2023/07/26 05:10:55;;;;;;;5.88;5.00;;;12.60;99.90;;;12.02;100.00;97004.50;5037319;28;20204;-38
2023/07/26 05:13:22;;;;;;;7.00;4.75;;;12.60;99.90;;;12.17;100.00;97017.91;5031792;28;20037;-38
2023/07/26 05:15:48;;;;;;;6.88;5.20;;;12.60;99.90;;;12.17;100.00;97024.03;5029878;28;20559;-38
2023/07/26 05:18:14;;;;;;;6.40;4.82;;;12.70;99.90;;;12.20;100.00;97023.91;5029997;28;20033;-38
2023/07/26 05:20:41;;;;;;;5.18;4.30;;;12.70;99.90;;;12.16;100.00;97029.41;5029546;28;20036;-38
2023/07/26 05:23:07;;;;;;;8.32;4.68;;;12.70;99.90;;;12.16;100.00;97030.25;5035963;28;20052;-38
2023/07/26 05:25:33;;;;;;;5.80;3.92;;;12.70;99.90;;;12.16;100.00;97035.53;5028513;28;20065;-39
2023/07/26 05:27:59;;;;;;;6.45;4.20;;;12.70;99.90;;;12.18;100.00;97038.09;5035790;28;20058;-37
2023/07/26 05:30:26;;;;;;;7.00;3.80;;;12.60;99.90;;;12.17;100.00;97034.59;5029737;28;20099;-37
2023/07/26 05:32:51;;;;;;;6.63;3.90;;;12.70;99.90;;;12.11;100.00;97026.13;5030775;28;20032;-38
2023/07/26 05:35:17;;;;;;;4.95;3.50;;;12.70;99.90;;;12.15;100.00;97033.84;5036473;28;20033;-38
2023/07/26 05:37:43;;;;;;;7.53;3.90;;;12.60;99.90;;;12.20;100.00;97041.53;5033142;28;20072;-37
2023/07/26 05:40:09;;;;;;;5.43;3.75;;;12.70;99.90;;;12.11;100.00;97028.75;5035131;28;20088;-38
2023/07/26 05:42:36;;;;;;;5.30;3.80;;;12.70;99.90;;;12.22;100.00;97040.53;5033217;28;20056;-38
2023/07/26 05:45:02;;;;;;;6.47;4.13;;;12.70;99.90;;;12.21;100.00;97041.44;5037515;28;20243;-38
2023/07/26 05:47:28;;;;;;;5.75;3.40;;;12.80;99.90;;;12.34;100.00;97048.78;5034047;28;20409;-38
2023/07/26 05:49:53;;;;;;;3.53;3.10;;;12.80;99.90;;;12.29;100.00;97027.88;5036576;28;20485;-38
2023/07/26 05:52:19;;;;;;;4.43;3.60;;;12.90;99.90;;;12.49;100.00;97049.78;5035581;28;20056;-37
2023/07/26 05:54:45;;;;;;;4.05;3.60;;;13.00;99.90;;;12.66;100.00;97052.44;5035991;28;20029;-38
2023/07/26 05:57:11;;;;;;;3.72;3.17;;;13.10;99.90;;;12.84;100.00;97047.16;5031437;28;20112;-39
2023/07/26 05:59:36;;;;;;;4.95;3.55;;;13.30;99.90;;;13.01;100.00;97060.38;5028040;28;20052;-38
2023/07/26 06:02:02;;;;;;;6.65;3.42;;;13.40;99.90;;;13.17;100.00;97063.06;5034749;28;20040;-38
2023/07/26 06:04:29;;;;;;;7.55;3.67;;;13.60;99.90;;;13.33;100.00;97060.47;5030784;28;20313;-38
2023/07/26 06:06:55;;;;;;;6.97;3.40;;;13.80;99.90;;;13.46;100.00;97071.28;5029072;28;21800;-40
2023/07/26 06:09:22;;;;;;;8.98;3.25;;;13.90;99.90;;;13.55;100.00;97060.22;5031961;28;20388;-38
2023/07/26 06:11:49;;;;;;;4.55;3.50;;;14.00;99.90;;;13.63;100.00;97062.44;5034031;28;20049;-38
2023/07/26 06:14:15;;;;;;;5.40;2.80;;;14.10;99.90;;;13.79;100.00;97060.63;5032886;28;20036;-38
2023/07/26 06:16:41;;;;;;;6.53;3.00;;;14.20;99.90;;;13.97;100.00;97061.41;5030297;28;20029;-38
2023/07/26 06:19:07;;;;;;;4.85;2.70;;;14.40;99.90;;;14.06;100.00;97070.66;5025995;28;20356;-38
2023/07/26 06:21:33;;;;;;;9.68;3.28;;;14.50;99.90;;;14.21;100.00;97069.78;5030323;28;20734;-38
2023/07/26 06:23:59;;;;;;;4.53;3.00;;;14.70;99.90;;;14.29;100.00;97064.03;5030206;28;20560;-38
2023/07/26 06:26:25;;;;;;;3.80;2.90;;;14.70;99.90;;;14.38;100.00;97068.81;5036306;28;20029;-38
2023/07/26 06:28:50;;;;;;;3.28;2.55;;;14.80;99.90;;;14.45;100.00;97075.47;5029810;28;20075;-38
2023/07/26 06:31:16;;;;;;;4.70;2.85;;;14.90;99.90;;;14.25;100.00;97060.72;5033408;28;20087;-38
2023/07/26 06:33:42;;;;;;;5.13;2.45;;;14.80;99.90;;;14.24;100.00;97080.22;5030655;28;20036;-38
2023/07/26 06:36:08;;;;;;;4.95;3.25;;;14.70;99.90;;;14.19;100.00;97066.34;5021821;28;20037;-38
2023/07/26 06:38:33;;;;;;;5.55;2.80;;;14.70;99.90;;;14.25;100.00;97073.97;5024687;28;20029;-38
2023/07/26 06:41:00;;;;;;;8.20;3.38;;;14.70;99.90;;;14.29;100.00;97095.88;5039073;28;20095;-39
2023/07/26 06:43:26;;;;;;;4.57;2.70;;;14.70;99.90;;;14.17;100.00;97073.53;5029806;28;20037;-38
2023/07/26 06:45:52;;;;;;;4.10;2.60;;;14.70;99.90;;;14.35;100.00;97099.97;5030769;28;20396;-38
2023/07/26 06:48:19;;;;;;;2.63;2.42;;;14.80;99.90;;;14.36;100.00;97099.88;5034169;28;20043;-38
2023/07/26 06:50:45;;;;;;;6.32;2.47;;;14.90;99.90;;;14.33;100.00;97086.78;5038992;28;20049;-38
2023/07/26 06:53:11;;;;;;;3.90;2.65;;;14.90;99.90;;;14.40;100.00;97089.97;5037339;28;20469;-38
2023/07/26 06:55:38;;;;;;;6.88;2.60;;;14.90;99.90;;;14.38;100.00;97103.31;5036587;28;20759;-38
2023/07/26 06:58:04;;;;;;;7.55;2.45;;;14.90;99.90;;;14.32;100.00;97106.31;5034231;28;20467;-38
2023/07/26 07:00:30;;;;;;;3.58;1.95;;;14.70;99.90;;;14.30;100.00;97110.84;5027734;28;20516;-38
2023/07/26 07:03:01;;;;;;;8.10;2.88;;;14.70;99.90;;;14.16;100.00;97110.75;5027698;28;20022;-38
2023/07/26 07:05:29;;;;;;;3.90;2.45;;;14.60;99.90;;;14.19;100.00;97106.13;5032468;28;20045;-39
2023/07/26 07:07:55;;;;;;;5.05;2.92;;;14.60;99.90;;;14.19;100.00;97129.16;5036651;28;20116;-38
2023/07/26 07:10:24;;;;;;;3.67;2.67;;;14.70;99.90;;;13.96;100.00;97106.56;5034312;28;20214;-38
2023/07/26 07:12:49;;;;;;;3.13;2.45;;;14.50;99.90;;;13.81;100.00;97109.13;5032776;28;20035;-38
2023/07/26 07:15:15;;;;;;;3.25;2.28;;;14.40;99.90;;;13.80;100.00;97122.44;5031140;28;20420;-38
2023/07/26 07:17:41;;;;;;;7.72;2.42;;;14.30;99.90;;;13.71;100.00;97118.50;5030623;28;20336;-38
2023/07/26 07:20:08;;;;;;;5.32;2.50;;;14.20;99.90;;;13.66;100.00;97120.56;5034848;28;20115;-38
2023/07/26 07:22:34;;;;;;;4.32;2.53;;;14.10;99.90;;;13.60;100.00;97119.06;5033632;28;20151;-38
2023/07/26 07:25:01;;;;;;;4.20;3.28;;;14.10;99.90;;;13.55;100.00;97123.78;5031324;28;20044;-37
2023/07/26 07:27:26;;;;;;;8.05;3.00;;;14.00;99.90;;;13.49;100.00;97118.81;5037884;28;20540;-38
2023/07/26 07:29:52;;;;;;;3.45;2.70;;;14.00;99.90;;;13.47;100.00;97118.88;5033621;28;20135;-38
2023/07/26 07:32:18;;;;;;;4.03;2.95;;;13.90;99.90;;;13.45;100.00;97112.81;5035711;28;20488;-38
2023/07/26 07:34:45;;;;;;;4.97;3.30;;;13.90;99.90;;;13.51;100.00;97119.56;5023524;28;20041;-38
2023/07/26 07:37:11;;;;;;;4.43;3.10;;;13.90;99.90;;;13.53;100.00;97118.56;5025736;28;20112;-38
2023/07/26 07:39:37;;;;;;;3.90;2.95;;;14.00;99.90;;;13.59;100.00;97122.69;5027795;28;20496;-38
2023/07/26 07:42:03;;;;;;;5.00;3.05;;;14.00;99.90;;;13.65;100.00;97113.53;5025946;28;20600;-38
2023/07/26 07:44:29;;;;;;;3.55;3.10;;;14.10;99.90;;;13.82;100.00;97120.56;5031756;28;20033;-37
2023/07/26 07:46:55;;;;;;;5.43;3.60;;;14.30;99.90;;;13.98;100.00;97131.19;5036448;28;24060;-38
2023/07/26 07:49:21;;;;;;;7.53;4.32;;;14.40;99.90;;;14.09;100.00;97123.53;5036996;28;20025;-38
2023/07/26 07:51:47;;;;;;;4.45;2.63;;;14.50;99.90;;;14.19;100.00;97122.03;5034094;28;20155;-38
2023/07/26 07:54:12;;;;;;;4.60;3.17;;;14.60;99.90;;;14.21;100.00;97128.16;5032329;28;20040;-38
2023/07/26 07:56:39;;;;;;;4.95;3.45;;;14.70;99.90;;;14.27;100.00;97117.19;5021904;28;20116;-38
2023/07/26 07:59:05;;;;;;;4.00;3.30;;;14.60;99.90;;;14.24;100.00;97133.25;5026077;28;20025;-38
2023/07/26 08:01:31;;;;;;;7.03;3.50;;;14.60;99.90;;;14.18;100.00;97130.13;5025882;28;20025;-38
2023/07/26 08:03:59;;;;;;;4.97;3.40;;;14.60;99.90;;;14.13;100.00;97136.50;5025510;28;20029;-38
2023/07/26 08:06:28;;;;;;;5.50;3.17;;;14.50;99.90;;;14.10;100.00;97125.22;5027831;28;20071;-37
2023/07/26 08:08:54;;;;;;;5.45;2.88;;;14.50;99.90;;;14.10;100.00;97122.56;5029651;28;20029;-38
2023/07/26 08:11:20;;;;;;;4.53;3.63;;;14.50;99.90;;;14.06;100.00;97123.69;5031148;28;20508;-38
2023/07/26 08:13:46;;;;;;;4.65;2.92;;;14.50;99.90;;;14.05;100.00;97122.84;5030360;28;20033;-38
2023/07/26 08:16:12;;;;;;;4.53;3.15;;;14.50;99.90;;;13.93;100.00;97105.78;5031354;28;20158;-38
2023/07/26 08:18:38;;;;;;;4.25;3.28;;;14.50;99.90;;;13.88;100.00;97104.34;5031426;28;20032;-38
2023/07/26 08:21:05;;;;;;;4.32;3.22;;;14.50;99.90;;;14.00;100.00;97126.66;5034464;28;20030;-38
2023/07/26 08:23:31;;;;;;;3.55;2.60;;;14.40;99.90;;;13.97;100.00;97130.34;5027716;28;20029;-38
2023/07/26 08:26:04;;;;;;;3.50;2.88;;;14.40;99.90;;;13.96;100.00;97133.06;5031278;28;20192;-38
2023/07/26 08:28:29;;;;;;;;;;;14.40;99.90;;;13.96;100.00;97133.06;5028484;28;20599;-38
2023/07/26 08:30:55;;;;;;;5.45;2.90;;;14.40;99.90;;;13.91;100.00;97136.00;5027679;28;19995;-38
2023/07/26 08:33:20;;;;;;;6.55;2.70;;;14.40;99.90;;;13.98;100.00;97136.50;5030444;28;20041;-38
2023/07/26 08:35:47;;;;;;;4.13;2.72;;;14.40;99.90;;;14.07;100.00;97134.22;5034521;28;20441;-37
2023/07/26 08:38:12;;;;;;;4.25;2.50;;;14.50;99.90;;;14.15;100.00;97128.47;5038889;28;20029;-38
2023/07/26 08:40:46;;;;;;;5.72;2.92;;;14.70;99.90;;;14.32;100.00;97130.19;5035396;28;20061;-39
2023/07/26 08:43:13;;;;;;;3.42;2.50;;;14.80;99.90;;;14.47;100.00;97128.47;5035532;28;20033;-40
2023/07/26 08:45:42;;;;;;;5.43;2.38;;;14.90;99.90;;;14.66;100.00;97133.59;5034818;28;20481;-38
2023/07/26 08:48:09;;;;;;;5.55;2.40;;;15.10;99.90;;;14.84;100.00;97131.66;5036357;28;20064;-38
2023/07/26 08:50:38;;;;;;;3.40;2.30;;;15.30;99.90;;;14.94;100.00;97140.81;5037007;28;20332;-37
2023/07/26 08:53:05;;;;;;;2.80;2.00;;;15.50;99.90;;;15.19;100.00;97137.56;5036405;28;20037;-38
2023/07/26 08:55:31;;;;;;;3.67;2.13;;;15.60;99.90;;;15.38;100.00;97139.97;5028262;28;21293;-38
2023/07/26 08:57:59;;;;;;;5.15;2.00;;;15.90;99.90;;;15.59;100.00;97140.44;5028509;28;20037;-38
2023/07/26 09:00:27;;;;;;;3.58;1.70;;;16.10;99.90;;;15.77;100.00;97134.97;5038290;28;20068;-38
2023/07/26 09:02:57;;;;;;;4.90;1.88;;;16.30;99.90;;;16.02;100.00;97136.97;5028932;28;20060;-38
2023/07/26 09:05:24;;;;;;;1.80;1.25;;;16.50;99.90;;;16.27;100.00;97130.94;5036895;28;20028;-38
2023/07/26 09:07:51;;;;;;;2.00;0.95;;;16.70;99.90;;;16.39;100.00;97139.94;5030001;28;20030;-38
2023/07/26 09:10:26;;;;;;;1.60;1.17;;;16.90;99.90;;;16.48;100.00;97139.34;5032490;28;20052;-38
2023/07/26 09:12:52;;;;;;;3.15;1.13;;;17.00;99.90;;;16.56;100.00;97137.06;5030435;28;20508;-38
2023/07/26 09:15:19;;;;;;;2.13;1.10;;;17.10;99.90;;;16.59;100.00;97134.16;5030623;28;20033;-38
2023/07/26 09:17:45;;;;;;;0.93;0.80;;;17.10;99.90;;;16.66;100.00;97134.63;5031845;28;20637;-38
2023/07/26 09:20:25;;;;;;;3.20;0.80;;;17.10;99.90;;;16.58;100.00;97143.13;5033907;28;20101;-38
2023/07/26 09:23:05;;;;;;;1.30;0.80;;;17.10;99.90;;;16.68;100.00;97132.72;5037070;28;20029;-38
2023/07/26 09:26:27;;;;;;;1.05;0.65;;;17.10;99.90;;;16.74;100.00;97135.00;5039487;28;20488;-38
2023/07/26 09:28:53;;;;;;;1.60;0.90;;;17.30;99.90;;;16.92;100.00;97137.41;5032341;28;20037;-38
2023/07/26 09:31:33;;;;;;;1.05;0.82;;;17.50;99.90;;;17.09;100.00;97139.78;5035437;28;20480;-38
2023/07/26 09:34:06;;;;;;;3.97;0.90;;;17.70;99.90;;;17.23;100.00;97136.19;5032232;28;20025;-37
2023/07/26 09:36:52;;;;;;;0.90;0.80;;;17.80;99.90;;;17.20;100.00;97135.56;5033169;28;20047;-37
2023/07/26 09:39:20;;;;;;;3.55;1.48;;;17.70;99.90;;;16.80;100.00;97133.72;5034565;28;20020;-36
2023/07/26 09:41:47;;;;;;;1.77;0.95;;;17.40;99.90;;;16.47;100.00;97132.31;5031412;28;20095;-36
2023/07/26 09:44:16;;;;;;;1.25;0.98;;;17.00;99.90;;;16.07;100.00;97129.56;5025534;28;20485;-36
2023/07/26 09:46:56;;;;;;;2.70;0.90;;;16.60;99.90;;;15.66;100.00;97130.31;5027775;28;20087;-37
2023/07/26 09:49:26;;;;;;;2.42;1.10;;;16.20;99.90;;;15.46;100.00;97139.50;5036864;28;20089;-37
2023/07/26 09:51:54;;;;;;;2.85;1.20;;;16.00;99.90;;;15.34;100.00;97140.25;5016270;28;20653;-37
2023/07/26 09:54:21;;;;;;;1.10;1.00;;;15.90;99.90;;;15.23;100.00;97139.06;5025399;28;20037;-37
2023/07/26 09:56:47;;;;;;;3.47;0.80;;;15.90;99.90;;;15.61;100.00;97140.34;5022614;28;20485;-37
2023/07/26 09:59:14;;;;;;;1.17;0.77;;;16.20;99.90;;;16.12;100.00;97139.91;5025649;28;20033;-37
2023/07/26 10:01:45;;;;;;;1.33;0.80;;;16.60;99.90;;;16.46;100.00;97138.59;5026702;28;20047;-37
2023/07/26 10:04:27;;;;;;;0.70;0.70;;;17.10;99.90;;;16.78;100.00;97141.81;5039168;28;20366;-37
2023/07/26 10:06:56;;;;;;;1.33;0.80;;;17.40;99.90;;;16.84;100.00;97126.41;5022498;28;20595;-38
2023/07/26 10:09:25;;;;;;;1.40;0.80;;;17.50;99.90;;;17.07;100.00;97130.22;5027052;28;20041;-37